createdAt,value
2023-02-27T00:00:22.708Z,-1.50
2023-02-27T00:01:25.264Z,-1.40
2023-02-27T00:02:27.962Z,-1.50
2023-02-27T00:03:31.110Z,-1.50
2023-02-27T00:04:33.746Z,-1.50
2023-02-27T00:05:36.281Z,-1.50
2023-02-27T00:06:38.630Z,-1.50
2023-02-27T00:07:41.628Z,-1.50
2023-02-27T00:08:44.755Z,-1.50
2023-02-27T00:09:47.166Z,-1.50
2023-02-27T00:10:51.329Z,-1.50
2023-02-27T00:11:53.741Z,-1.50
2023-02-27T00:12:56.125Z,-1.50
2023-02-27T00:13:58.194Z,-1.50
2023-02-27T00:14:59.927Z,-1.60
2023-02-27T00:16:01.994Z,-1.50
2023-02-27T00:17:03.763Z,-1.50
2023-02-27T00:18:05.614Z,-1.50
2023-02-27T00:19:07.381Z,-1.60
2023-02-27T00:20:11.623Z,-1.60
2023-02-27T00:21:13.403Z,-1.60
2023-02-27T00:22:15.144Z,-1.60
2023-02-27T00:23:16.917Z,-1.60
2023-02-27T00:24:19.063Z,-1.60
2023-02-27T00:25:20.957Z,-1.60
2023-02-27T00:26:22.728Z,-1.70
2023-02-27T00:27:24.755Z,-1.70
2023-02-27T00:28:27.061Z,-1.70
2023-02-27T00:29:28.950Z,-1.70
2023-02-27T00:30:30.801Z,-1.70
2023-02-27T00:31:33.196Z,-1.70
2023-02-27T00:32:36.726Z,-1.70
2023-02-27T00:33:38.714Z,-1.70
2023-02-27T00:34:40.456Z,-1.70
2023-02-27T00:35:42.204Z,-1.70
2023-02-27T00:36:43.965Z,-1.70
2023-02-27T00:37:45.733Z,-1.70
2023-02-27T00:38:47.907Z,-1.70
2023-02-27T00:39:50.320Z,-1.70
2023-02-27T00:40:52.333Z,-1.70
2023-02-27T00:41:54.052Z,-1.80
2023-02-27T00:42:55.918Z,-1.70
2023-02-27T00:43:57.776Z,-1.70
2023-02-27T00:44:59.598Z,-1.70
2023-02-27T00:46:01.338Z,-1.80
2023-02-27T00:47:03.059Z,-1.80
2023-02-27T00:48:04.874Z,-1.80
2023-02-27T00:49:06.652Z,-1.80
2023-02-27T00:50:09.125Z,-1.80
2023-02-27T00:51:10.917Z,-1.80
2023-02-27T00:52:12.690Z,-1.80
2023-02-27T00:53:14.440Z,-1.80
2023-02-27T00:54:16.155Z,-1.80
2023-02-27T00:55:17.996Z,-1.80
2023-02-27T00:56:19.745Z,-1.80
2023-02-27T00:57:21.870Z,-1.80
2023-02-27T00:58:23.663Z,-1.80
2023-02-27T00:59:25.440Z,-1.80
2023-02-27T01:00:27.444Z,-1.80
2023-02-27T01:01:29.300Z,-1.80
2023-02-27T01:02:31.123Z,-1.80
2023-02-27T01:03:32.945Z,-1.80
2023-02-27T01:04:34.838Z,-1.80
2023-02-27T01:05:36.672Z,-1.90
2023-02-27T01:06:38.408Z,-1.90
2023-02-27T01:07:40.377Z,-1.90
2023-02-27T01:08:42.096Z,-1.90
2023-02-27T01:09:43.841Z,-1.90
2023-02-27T01:10:45.613Z,-1.90
2023-02-27T01:11:47.402Z,-1.90
2023-02-27T01:12:49.187Z,-1.90
2023-02-27T01:13:51.174Z,-1.90
2023-02-27T01:14:52.979Z,-1.90
2023-02-27T01:15:54.744Z,-1.90
2023-02-27T01:16:58.109Z,-1.80
2023-02-27T01:18:00.094Z,-1.90
2023-02-27T01:19:02.024Z,-1.80
2023-02-27T01:20:05.318Z,-1.90
2023-02-27T01:21:07.321Z,-1.90
2023-02-27T01:22:09.061Z,-1.90
2023-02-27T01:23:10.829Z,-1.90
2023-02-27T01:24:13.157Z,-1.90
2023-02-27T01:25:15.092Z,-1.90
2023-02-27T01:26:16.886Z,-2.00
2023-02-27T01:27:18.788Z,-2.00
2023-02-27T01:28:21.160Z,-2.10
2023-02-27T01:29:22.943Z,-2.10
2023-02-27T01:30:24.712Z,-2.10
2023-02-27T01:31:26.805Z,-2.00
2023-02-27T01:32:28.837Z,-2.00
2023-02-27T01:33:30.678Z,-2.00
2023-02-27T01:34:37.180Z,-1.90
2023-02-27T01:35:39.161Z,-2.00
2023-02-27T01:36:40.922Z,-2.00
2023-02-27T01:37:42.794Z,-1.90
2023-02-27T01:38:44.507Z,-1.90
2023-02-27T01:39:46.246Z,-1.90
2023-02-27T01:40:48.008Z,-1.90
2023-02-27T01:41:49.809Z,-1.90
2023-02-27T01:42:51.704Z,-1.90
2023-02-27T01:44:08.437Z,-1.80
2023-02-27T01:45:27.434Z,-1.80
2023-02-27T01:46:30.662Z,-1.90
2023-02-27T01:47:32.908Z,-1.90
2023-02-27T01:48:39.521Z,-1.90
2023-02-27T01:49:41.493Z,-2.00
2023-02-27T01:50:48.913Z,-2.00
2023-02-27T01:52:11.877Z,-2.00
2023-02-27T01:53:14.454Z,-2.10
2023-02-27T01:54:20.895Z,-2.10
2023-02-27T01:55:24.548Z,-2.10
2023-02-27T01:56:29.991Z,-2.10
2023-02-27T01:57:31.771Z,-2.10
2023-02-27T01:58:34.296Z,-2.10
2023-02-27T01:59:39.505Z,-2.10
2023-02-27T02:00:41.750Z,-2.10
2023-02-27T02:01:43.778Z,-2.10
2023-02-27T02:03:08.889Z,-2.20
2023-02-27T02:04:27.320Z,-2.20
2023-02-27T02:05:30.503Z,-2.20
2023-02-27T02:06:35.394Z,-2.20
2023-02-27T02:07:39.716Z,-2.20
2023-02-27T02:08:47.710Z,-2.20
2023-02-27T02:09:53.900Z,-2.20
2023-02-27T02:10:56.915Z,-2.20
2023-02-27T02:12:00.155Z,-2.20
2023-02-27T02:13:02.550Z,-2.30
2023-02-27T02:14:04.316Z,-2.30
2023-02-27T02:15:06.993Z,-2.30
2023-02-27T02:16:36.658Z,-2.30
2023-02-27T02:18:03.494Z,-2.30
2023-02-27T02:19:39.183Z,-2.30
2023-02-27T02:20:59.581Z,-2.40
2023-02-27T02:22:38.914Z,-2.60
2023-02-27T02:23:58.807Z,-2.70
2023-02-27T02:25:22.351Z,-2.60
2023-02-27T02:26:59.493Z,-2.50
2023-02-27T02:28:10.053Z,-2.50
2023-02-27T02:29:32.005Z,-2.40
2023-02-27T02:30:58.716Z,-2.50
2023-02-27T02:32:41.845Z,-2.50
2023-02-27T02:34:21.132Z,-2.50
2023-02-27T02:35:56.314Z,-2.50
2023-02-27T02:37:17.400Z,-2.50
2023-02-27T02:38:47.038Z,-2.50
2023-02-27T02:40:16.385Z,-2.50
2023-02-27T02:41:38.986Z,-2.50
2023-02-27T02:42:57.304Z,-2.50
2023-02-27T02:44:28.950Z,-2.50
2023-02-27T02:45:58.455Z,-2.50
2023-02-27T02:47:40.339Z,-2.40
2023-02-27T02:48:56.078Z,-2.50
2023-02-27T02:50:13.952Z,-2.50
2023-02-27T02:51:36.706Z,-2.50
2023-02-27T02:52:45.419Z,-2.50
2023-02-27T02:54:00.357Z,-2.50
2023-02-27T02:55:22.505Z,-2.50
2023-02-27T02:56:50.569Z,-2.50
2023-02-27T02:58:06.729Z,-2.40
2023-02-27T02:59:11.500Z,-2.40
2023-02-27T03:00:24.298Z,-2.40
2023-02-27T03:01:39.468Z,-2.40
2023-02-27T03:02:53.247Z,-2.40
2023-02-27T03:04:22.199Z,-2.40
2023-02-27T03:05:33.021Z,-2.40
2023-02-27T03:06:38.578Z,-2.50
2023-02-27T03:08:00.380Z,-2.40
2023-02-27T03:09:26.122Z,-2.50
2023-02-27T03:10:44.723Z,-2.50
2023-02-27T03:11:50.493Z,-2.40
2023-02-27T03:13:19.320Z,-2.40
2023-02-27T03:14:26.905Z,-2.40
2023-02-27T03:15:34.916Z,-2.40
2023-02-27T03:16:41.974Z,-2.30
2023-02-27T03:17:59.425Z,-2.30
2023-02-27T03:19:11.240Z,-2.30
2023-02-27T03:20:22.250Z,-2.20
2023-02-27T03:21:47.203Z,-2.20
2023-02-27T03:22:55.255Z,-2.20
2023-02-27T03:23:59.854Z,-2.20
2023-02-27T03:25:04.434Z,-2.20
2023-02-27T03:26:08.308Z,-2.20
2023-02-27T03:27:11.672Z,-2.20
2023-02-27T03:28:22.365Z,-2.20
2023-02-27T03:29:36.570Z,-2.30
2023-02-27T03:30:45.385Z,-2.30
2023-02-27T03:31:58.273Z,-2.30
2023-02-27T03:33:20.952Z,-2.20
2023-02-27T03:34:26.045Z,-2.20
2023-02-27T03:35:43.478Z,-2.20
2023-02-27T03:37:00.736Z,-2.20
2023-02-27T03:38:12.253Z,-2.20
2023-02-27T03:39:38.714Z,-2.20
2023-02-27T03:40:52.725Z,-2.20
2023-02-27T03:42:16.338Z,-2.20
2023-02-27T03:43:26.141Z,-2.20
2023-02-27T03:44:33.581Z,-2.20
2023-02-27T03:46:01.651Z,-2.20
2023-02-27T03:47:03.511Z,-2.20
2023-02-27T03:48:06.943Z,-2.20
2023-02-27T03:49:08.865Z,-2.20
2023-02-27T03:50:11.449Z,-2.20
2023-02-27T03:51:20.722Z,-2.20
2023-02-27T03:52:24.241Z,-2.20
2023-02-27T03:53:37.660Z,-2.20
2023-02-27T03:54:53.082Z,-2.20
2023-02-27T03:55:56.414Z,-2.20
2023-02-27T03:57:05.228Z,-2.20
2023-02-27T03:58:07.229Z,-2.20
2023-02-27T03:59:09.229Z,-2.20
2023-02-27T04:00:16.248Z,-2.10
2023-02-27T04:01:18.225Z,-2.20
2023-02-27T04:02:20.607Z,-2.20
2023-02-27T04:03:22.942Z,-2.20
2023-02-27T04:04:25.705Z,-2.20
2023-02-27T04:05:28.954Z,-2.20
2023-02-27T04:06:50.996Z,-2.10
2023-02-27T04:08:01.579Z,-2.20
2023-02-27T04:09:11.900Z,-2.10
2023-02-27T04:10:29.860Z,-2.10
2023-02-27T04:11:37.526Z,-2.20
2023-02-27T04:12:46.022Z,-2.10
2023-02-27T04:14:02.819Z,-2.10
2023-02-27T04:15:36.770Z,-2.10
2023-02-27T04:16:56.186Z,-2.10
2023-02-27T04:18:30.502Z,-2.10
2023-02-27T04:19:58.080Z,-2.10
2023-02-27T04:21:21.405Z,-2.10
2023-02-27T04:22:57.183Z,-2.10
2023-02-27T04:24:07.758Z,-2.20
2023-02-27T04:25:15.297Z,-2.20
2023-02-27T04:26:19.982Z,-2.20
2023-02-27T04:27:37.033Z,-2.20
2023-02-27T04:29:15.731Z,-2.20
2023-02-27T04:30:42.782Z,-2.20
2023-02-27T04:31:48.503Z,-2.20
2023-02-27T04:32:53.609Z,-2.20
2023-02-27T04:34:03.197Z,-2.20
2023-02-27T04:35:28.160Z,-2.20
2023-02-27T04:36:38.521Z,-2.20
2023-02-27T04:37:45.921Z,-2.20
2023-02-27T04:38:54.877Z,-2.10
2023-02-27T04:40:09.212Z,-2.10
2023-02-27T04:41:22.148Z,-2.10
2023-02-27T04:42:29.129Z,-2.00
2023-02-27T04:43:32.725Z,-2.00
2023-02-27T04:44:37.729Z,-2.00
2023-02-27T04:45:41.571Z,-2.00
2023-02-27T04:46:45.283Z,-2.00
2023-02-27T04:47:53.588Z,-2.00
2023-02-27T04:49:04.025Z,-1.90
2023-02-27T04:50:15.001Z,-1.90
2023-02-27T04:51:20.687Z,-1.90
2023-02-27T04:52:45.138Z,-1.90
2023-02-27T04:53:53.574Z,-1.90
2023-02-27T04:55:08.241Z,-1.90
2023-02-27T04:56:16.636Z,-1.90
2023-02-27T04:57:27.497Z,-1.90
2023-02-27T04:58:42.435Z,-1.90
2023-02-27T04:59:48.762Z,-1.90
2023-02-27T05:01:03.693Z,-1.90
2023-02-27T05:02:12.068Z,-1.90
2023-02-27T05:03:22.397Z,-1.90
2023-02-27T05:04:27.178Z,-1.90
2023-02-27T05:05:32.211Z,-1.90
2023-02-27T05:06:37.930Z,-1.90
2023-02-27T05:07:51.377Z,-2.00
2023-02-27T05:09:04.822Z,-2.00
2023-02-27T05:10:14.899Z,-2.00
2023-02-27T05:11:38.465Z,-2.00
2023-02-27T05:13:11.062Z,-2.10
2023-02-27T05:14:37.026Z,-2.10
2023-02-27T05:15:45.479Z,-2.20
2023-02-27T05:16:54.152Z,-2.20
2023-02-27T05:18:00.452Z,-2.20
2023-02-27T05:19:03.487Z,-2.30
2023-02-27T05:20:09.120Z,-2.30
2023-02-27T05:21:16.632Z,-2.30
2023-02-27T05:22:24.571Z,-2.30
2023-02-27T05:23:52.310Z,-2.30
2023-02-27T05:24:54.540Z,-2.40
2023-02-27T05:26:11.783Z,-2.30
2023-02-27T05:27:32.217Z,-2.30
2023-02-27T05:28:47.160Z,-2.40
2023-02-27T05:29:51.554Z,-2.40
2023-02-27T05:31:03.344Z,-2.40
2023-02-27T05:32:17.898Z,-2.30
2023-02-27T05:33:27.372Z,-2.30
2023-02-27T05:34:36.330Z,-2.30
2023-02-27T05:35:46.925Z,-2.30
2023-02-27T05:37:03.508Z,-2.30
2023-02-27T05:38:12.060Z,-2.30
2023-02-27T05:39:15.855Z,-2.20
2023-02-27T05:40:23.457Z,-2.20
2023-02-27T05:41:57.159Z,-2.20
2023-02-27T05:43:34.808Z,-2.20
2023-02-27T05:44:43.108Z,-2.10
2023-02-27T05:45:49.656Z,-2.10
2023-02-27T05:47:00.652Z,-2.10
2023-02-27T05:48:07.235Z,-2.10
2023-02-27T05:49:16.425Z,-2.10
2023-02-27T05:50:22.605Z,-2.10
2023-02-27T05:51:28.049Z,-2.10
2023-02-27T05:52:32.272Z,-2.10
2023-02-27T05:53:40.568Z,-2.10
2023-02-27T05:54:50.537Z,-2.00
2023-02-27T05:55:59.190Z,-2.10
2023-02-27T05:57:02.971Z,-2.00
2023-02-27T05:58:24.516Z,-2.10
2023-02-27T05:59:35.497Z,-2.10
2023-02-27T06:00:53.862Z,-2.10
2023-02-27T06:01:55.825Z,-2.10
2023-02-27T06:02:57.811Z,-2.10
2023-02-27T06:03:59.628Z,-2.00
2023-02-27T06:05:01.586Z,-2.00
2023-02-27T06:06:06.402Z,-2.00
2023-02-27T06:07:08.710Z,-2.00
2023-02-27T06:08:11.249Z,-1.90
2023-02-27T06:09:13.001Z,-1.90
2023-02-27T06:10:16.557Z,-1.90
2023-02-27T06:11:18.305Z,-1.90
2023-02-27T06:12:20.495Z,-1.90
2023-02-27T06:13:23.296Z,-1.90
2023-02-27T06:14:25.481Z,-1.90
2023-02-27T06:15:28.384Z,-1.90
2023-02-27T06:16:30.678Z,-1.90
2023-02-27T06:17:32.617Z,-1.90
2023-02-27T06:18:34.425Z,-1.90
2023-02-27T06:19:36.184Z,-1.90
2023-02-27T06:20:38.784Z,-1.90
2023-02-27T06:21:40.535Z,-1.80
2023-02-27T06:22:42.373Z,-1.90
2023-02-27T06:23:44.209Z,-1.90
2023-02-27T06:24:45.980Z,-1.90
2023-02-27T06:25:48.742Z,-1.80
2023-02-27T06:26:50.442Z,-1.80
2023-02-27T06:27:52.187Z,-1.80
2023-02-27T06:28:53.903Z,-1.80
2023-02-27T06:29:55.807Z,-1.80
2023-02-27T06:30:57.784Z,-1.80
2023-02-27T06:31:59.789Z,-1.80
2023-02-27T06:33:02.176Z,-1.80
2023-02-27T06:34:03.985Z,-1.80
2023-02-27T06:35:06.718Z,-1.80
2023-02-27T06:36:08.525Z,-1.70
2023-02-27T06:37:10.280Z,-1.70
2023-02-27T06:38:12.080Z,-1.70
2023-02-27T06:39:13.835Z,-1.70
2023-02-27T06:40:15.895Z,-1.70
2023-02-27T06:41:17.591Z,-1.60
2023-02-27T06:42:19.405Z,-1.50
2023-02-27T06:43:23.133Z,-1.50
2023-02-27T06:44:24.884Z,-1.40
2023-02-27T06:45:26.621Z,-1.50
2023-02-27T06:46:28.662Z,-1.50
2023-02-27T06:47:30.645Z,-1.50
2023-02-27T06:48:32.690Z,-1.50
2023-02-27T06:49:34.478Z,-1.50
2023-02-27T06:50:36.287Z,-1.50
2023-02-27T06:51:38.033Z,-1.40
2023-02-27T06:52:40.196Z,-1.40
2023-02-27T06:53:42.133Z,-1.40
2023-02-27T06:54:43.873Z,-1.40
2023-02-27T06:55:45.666Z,-1.40
2023-02-27T06:56:47.960Z,-1.40
2023-02-27T06:57:49.893Z,-1.40
2023-02-27T06:58:51.644Z,-1.30
2023-02-27T06:59:53.429Z,-1.30
2023-02-27T07:00:55.285Z,-1.30
2023-02-27T07:01:59.065Z,-1.30
2023-02-27T07:03:04.529Z,-1.30
2023-02-27T07:04:06.231Z,-1.30
2023-02-27T07:05:09.108Z,-1.30
2023-02-27T07:06:12.064Z,-1.30
2023-02-27T07:07:35.661Z,-1.30
2023-02-27T07:08:36.968Z,-1.30
2023-02-27T07:09:38.749Z,-1.20
2023-02-27T07:10:42.876Z,-1.30
2023-02-27T07:11:44.652Z,-1.30
2023-02-27T07:12:46.487Z,-1.30
2023-02-27T07:13:48.207Z,-1.30
2023-02-27T07:14:49.938Z,-1.20
2023-02-27T07:15:52.420Z,-1.20
2023-02-27T07:16:54.289Z,-1.20
2023-02-27T07:17:56.012Z,-1.20
2023-02-27T07:18:58.876Z,-1.20
2023-02-27T07:20:00.602Z,-1.20
2023-02-27T07:21:02.360Z,-1.10
2023-02-27T07:22:04.061Z,-1.10
2023-02-27T07:23:05.846Z,-1.10
2023-02-27T07:24:07.739Z,-1.10
2023-02-27T07:25:10.118Z,-1.10
2023-02-27T07:26:11.861Z,-1.00
2023-02-27T07:27:13.674Z,-1.00
2023-02-27T07:28:16.019Z,-1.00
2023-02-27T07:29:17.878Z,-1.00
2023-02-27T07:30:19.662Z,-0.90
2023-02-27T07:31:21.467Z,-0.90
2023-02-27T07:32:23.677Z,-0.90
2023-02-27T07:33:25.698Z,-0.90
2023-02-27T07:34:27.454Z,-0.90
2023-02-27T07:35:29.358Z,-0.90
2023-02-27T07:36:31.540Z,-0.90
2023-02-27T07:37:33.318Z,-0.90
2023-02-27T07:38:35.103Z,-0.80
2023-02-27T07:39:36.946Z,-0.80
2023-02-27T07:40:38.710Z,-0.80
2023-02-27T07:41:40.717Z,-0.80
2023-02-27T07:42:42.569Z,-0.80
2023-02-27T07:43:44.307Z,-0.80
2023-02-27T07:44:46.248Z,-0.80
2023-02-27T07:45:50.670Z,-0.70
2023-02-27T07:46:52.584Z,-0.70
2023-02-27T07:47:54.468Z,-0.70
2023-02-27T07:48:56.221Z,-0.70
2023-02-27T07:49:58.035Z,-0.70
2023-02-27T07:51:00.470Z,-0.70
2023-02-27T07:52:02.660Z,-0.70
2023-02-27T07:53:05.520Z,-0.60
2023-02-27T07:54:07.327Z,-0.60
2023-02-27T07:55:10.880Z,-0.60
2023-02-27T07:56:12.731Z,-0.60
2023-02-27T07:57:14.792Z,-0.60
2023-02-27T07:58:16.552Z,-0.50
2023-02-27T07:59:18.308Z,-0.60
2023-02-27T08:00:20.461Z,-0.60
2023-02-27T08:01:22.338Z,-0.60
2023-02-27T08:02:24.164Z,-0.60
2023-02-27T08:03:25.959Z,-0.60
2023-02-27T08:04:27.794Z,-0.60
2023-02-27T08:05:29.769Z,-0.50
2023-02-27T08:06:31.539Z,-0.50
2023-02-27T08:07:33.322Z,-0.60
2023-02-27T08:08:35.336Z,-0.50
2023-02-27T08:09:37.119Z,-0.50
2023-02-27T08:10:38.854Z,-0.50
2023-02-27T08:11:40.675Z,-0.50
2023-02-27T08:12:42.789Z,-0.50
2023-02-27T08:13:59.993Z,-0.50
2023-02-27T08:15:02.148Z,-0.40
2023-02-27T08:16:04.162Z,-0.40
2023-02-27T08:17:06.016Z,-0.40
2023-02-27T08:18:07.911Z,-0.40
2023-02-27T08:19:09.732Z,-0.40
2023-02-27T08:20:12.668Z,-0.40
2023-02-27T08:21:14.633Z,-0.40
2023-02-27T08:22:16.462Z,-0.40
2023-02-27T08:23:18.217Z,-0.40
2023-02-27T08:24:19.952Z,-0.40
2023-02-27T08:25:21.701Z,-0.30
2023-02-27T08:26:23.710Z,-0.40
2023-02-27T08:27:25.499Z,-0.40
2023-02-27T08:28:27.809Z,-0.40
2023-02-27T08:29:31.330Z,-0.40
2023-02-27T08:30:33.036Z,-0.30
2023-02-27T08:31:35.155Z,-0.30
2023-02-27T08:32:38.637Z,-0.40
2023-02-27T08:33:40.365Z,-0.30
2023-02-27T08:34:42.113Z,-0.30
2023-02-27T08:35:43.911Z,-0.40
2023-02-27T08:36:45.696Z,-0.40
2023-02-27T08:37:49.175Z,-0.40
2023-02-27T08:38:50.966Z,-0.40
2023-02-27T08:39:52.722Z,-0.40
2023-02-27T08:40:54.476Z,-0.30
2023-02-27T08:41:58.991Z,-0.30
2023-02-27T08:43:01.476Z,-0.30
2023-02-27T08:44:03.471Z,-0.30
2023-02-27T08:45:05.734Z,-0.30
2023-02-27T08:46:07.605Z,-0.30
2023-02-27T08:47:09.415Z,-0.20
2023-02-27T08:48:14.057Z,-0.20
2023-02-27T08:49:16.118Z,-0.20
2023-02-27T08:50:18.113Z,-0.20
2023-02-27T08:51:19.859Z,-0.20
2023-02-27T08:52:23.470Z,-0.20
2023-02-27T08:53:26.873Z,-0.10
2023-02-27T08:54:28.665Z,-0.10
2023-02-27T08:55:30.427Z,-0.10
2023-02-27T08:56:34.497Z,-0.10
2023-02-27T08:57:36.428Z,-0.10
2023-02-27T08:58:38.179Z,-0.10
2023-02-27T08:59:39.956Z,-0.20
2023-02-27T09:00:41.685Z,-0.10
2023-02-27T09:01:43.593Z,-0.10
2023-02-27T09:02:45.377Z,-0.10
2023-02-27T09:03:47.086Z,0.00
2023-02-27T09:04:48.822Z,0.00
2023-02-27T09:05:50.579Z,0.00
2023-02-27T09:06:53.670Z,0.00
2023-02-27T09:07:55.476Z,0.10
2023-02-27T09:08:58.277Z,0.10
2023-02-27T09:10:00.347Z,0.10
2023-02-27T09:11:02.982Z,0.20
2023-02-27T09:12:04.983Z,0.20
2023-02-27T09:13:06.860Z,0.20
2023-02-27T09:14:08.674Z,0.20
2023-02-27T09:15:12.268Z,0.30
2023-02-27T09:16:14.053Z,0.30
2023-02-27T09:17:15.789Z,0.20
2023-02-27T09:18:17.501Z,0.30
2023-02-27T09:19:19.387Z,0.30
2023-02-27T09:20:21.109Z,0.30
2023-02-27T09:21:24.713Z,0.40
2023-02-27T09:22:26.517Z,0.40
2023-02-27T09:23:28.240Z,0.50
2023-02-27T09:24:29.977Z,0.50
2023-02-27T09:25:31.825Z,0.50
2023-02-27T09:26:43.647Z,0.50
2023-02-27T09:27:47.632Z,0.60
2023-02-27T09:28:49.601Z,0.60
2023-02-27T09:29:56.248Z,0.60
2023-02-27T09:31:06.134Z,0.60
2023-02-27T09:32:08.918Z,0.50
2023-02-27T09:33:10.717Z,0.50
2023-02-27T09:34:12.471Z,0.50
2023-02-27T09:35:15.830Z,0.60
2023-02-27T09:36:17.758Z,0.60
2023-02-27T09:37:19.973Z,0.60
2023-02-27T09:38:21.732Z,0.60
2023-02-27T09:39:23.495Z,0.70
2023-02-27T09:40:29.171Z,0.70
2023-02-27T09:41:55.538Z,0.80
2023-02-27T09:43:02.942Z,0.70
2023-02-27T09:44:05.755Z,0.70
2023-02-27T09:45:14.065Z,0.80
2023-02-27T09:46:20.123Z,0.80
2023-02-27T09:47:35.419Z,0.80
2023-02-27T09:48:45.700Z,0.80
2023-02-27T09:50:01.677Z,0.80
2023-02-27T09:51:04.006Z,0.80
2023-02-27T09:52:05.810Z,0.80
2023-02-27T09:53:15.958Z,0.80
2023-02-27T09:54:17.815Z,0.90
2023-02-27T09:55:21.683Z,0.90
2023-02-27T09:56:28.806Z,0.90
2023-02-27T09:58:07.763Z,0.80
2023-02-27T09:59:16.208Z,0.90
2023-02-27T10:00:39.556Z,0.90
2023-02-27T10:01:48.054Z,1.00
2023-02-27T10:03:11.589Z,1.00
2023-02-27T10:04:23.083Z,1.10
2023-02-27T10:06:06.217Z,1.10
2023-02-27T10:07:20.699Z,1.10
2023-02-27T10:08:46.604Z,1.10
2023-02-27T10:09:56.288Z,1.10
2023-02-27T10:11:11.485Z,1.10
2023-02-27T10:12:16.350Z,1.10
2023-02-27T10:13:44.292Z,1.00
2023-02-27T10:14:51.978Z,1.00
2023-02-27T10:15:54.781Z,1.00
2023-02-27T10:16:57.811Z,1.00
2023-02-27T10:18:26.820Z,1.00
2023-02-27T10:19:34.286Z,1.00
2023-02-27T10:20:57.001Z,0.90
2023-02-27T10:22:01.921Z,0.90
2023-02-27T10:23:14.963Z,0.90
2023-02-27T10:24:27.417Z,0.90
2023-02-27T10:25:32.061Z,0.80
2023-02-27T10:26:39.941Z,0.80
2023-02-27T10:27:45.847Z,0.80
2023-02-27T10:28:47.893Z,0.80
2023-02-27T10:29:50.532Z,0.80
2023-02-27T10:30:55.943Z,0.70
2023-02-27T10:32:21.182Z,0.70
2023-02-27T10:33:36.682Z,0.70
2023-02-27T10:34:41.351Z,0.70
2023-02-27T10:35:46.851Z,0.70
2023-02-27T10:36:48.957Z,0.70
2023-02-27T10:37:55.928Z,0.70
2023-02-27T10:39:00.700Z,0.60
2023-02-27T10:40:04.746Z,0.60
2023-02-27T10:41:10.492Z,0.70
2023-02-27T10:42:16.144Z,0.70
2023-02-27T10:43:19.224Z,0.70
2023-02-27T10:44:21.311Z,0.70
2023-02-27T10:45:23.258Z,0.80
2023-02-27T10:46:38.134Z,0.80
2023-02-27T10:47:40.357Z,0.80
2023-02-27T10:48:42.336Z,0.90
2023-02-27T10:49:44.219Z,0.90
2023-02-27T10:50:53.702Z,0.90
2023-02-27T10:52:08.769Z,0.90
2023-02-27T10:53:21.654Z,0.80
2023-02-27T10:54:25.027Z,0.80
2023-02-27T10:55:32.473Z,0.80
2023-02-27T10:56:34.322Z,0.90
2023-02-27T10:57:42.950Z,0.90
2023-02-27T10:58:45.437Z,0.90
2023-02-27T10:59:57.838Z,1.00
2023-02-27T11:01:02.180Z,1.00
2023-02-27T11:02:20.861Z,1.00
2023-02-27T11:03:32.253Z,1.10
2023-02-27T11:04:39.509Z,1.10
2023-02-27T11:05:41.340Z,1.10
2023-02-27T11:06:43.628Z,1.20
2023-02-27T11:07:45.514Z,1.30
2023-02-27T11:09:22.326Z,1.30
2023-02-27T11:10:27.755Z,1.40
2023-02-27T11:11:29.931Z,1.50
2023-02-27T11:12:35.178Z,1.50
2023-02-27T11:13:39.738Z,1.60
2023-02-27T11:14:53.304Z,1.60
2023-02-27T11:16:24.197Z,1.60
2023-02-27T11:17:34.159Z,1.70
2023-02-27T11:18:38.745Z,1.70
2023-02-27T11:19:40.634Z,1.80
2023-02-27T11:20:43.612Z,1.80
2023-02-27T11:22:20.249Z,1.90
2023-02-27T11:23:24.623Z,1.90
2023-02-27T11:24:26.361Z,1.80
2023-02-27T11:25:28.093Z,1.80
2023-02-27T11:26:38.153Z,1.80
2023-02-27T11:27:39.945Z,1.80
2023-02-27T11:28:42.536Z,1.80
2023-02-27T11:29:58.837Z,1.80
2023-02-27T11:31:04.321Z,1.90
2023-02-27T11:32:14.272Z,1.90
2023-02-27T11:33:20.795Z,1.90
2023-02-27T11:34:36.666Z,1.90
2023-02-27T11:35:39.486Z,1.90
2023-02-27T11:36:49.425Z,1.90
2023-02-27T11:37:53.374Z,2.00
2023-02-27T11:38:56.526Z,2.00
2023-02-27T11:40:10.608Z,2.00
2023-02-27T11:41:12.829Z,2.00
2023-02-27T11:42:18.763Z,2.00
2023-02-27T11:43:33.593Z,1.90
2023-02-27T11:44:50.545Z,1.90
2023-02-27T11:46:04.305Z,2.00
2023-02-27T11:47:13.347Z,2.10
2023-02-27T11:48:21.977Z,2.20
2023-02-27T11:49:38.029Z,2.20
2023-02-27T11:50:52.044Z,2.20
2023-02-27T11:52:11.010Z,2.30
2023-02-27T11:53:29.503Z,2.40
2023-02-27T11:54:45.430Z,2.40
2023-02-27T11:55:48.289Z,2.50
2023-02-27T11:56:58.817Z,2.50
2023-02-27T11:58:14.168Z,2.50
2023-02-27T11:59:47.905Z,2.50
2023-02-27T12:00:56.653Z,2.60
2023-02-27T12:02:23.077Z,2.40
2023-02-27T12:03:46.226Z,2.40
2023-02-27T12:05:15.586Z,2.10
2023-02-27T12:06:21.639Z,2.10
2023-02-27T12:07:32.426Z,2.20
2023-02-27T12:08:43.233Z,2.20
2023-02-27T12:09:56.051Z,2.10
2023-02-27T12:11:13.933Z,2.10
2023-02-27T12:12:39.852Z,2.10
2023-02-27T12:13:46.377Z,2.10
2023-02-27T12:15:03.004Z,2.10
2023-02-27T12:16:33.240Z,2.00
2023-02-27T12:17:44.895Z,2.00
2023-02-27T12:18:55.470Z,2.00
2023-02-27T12:20:12.461Z,2.00
2023-02-27T12:21:48.455Z,1.90
2023-02-27T12:22:54.296Z,1.90
2023-02-27T12:24:08.349Z,1.90
2023-02-27T12:25:19.432Z,1.90
2023-02-27T12:26:34.762Z,1.90
2023-02-27T12:27:54.588Z,2.00
2023-02-27T12:29:27.556Z,2.00
2023-02-27T12:30:57.031Z,2.00
2023-02-27T12:32:24.830Z,2.00
2023-02-27T12:33:43.517Z,2.00
2023-02-27T12:34:49.798Z,2.10
2023-02-27T12:35:59.483Z,2.10
2023-02-27T12:37:05.398Z,2.10
2023-02-27T12:38:10.310Z,2.10
2023-02-27T12:39:20.441Z,2.10
2023-02-27T12:40:37.195Z,2.00
2023-02-27T12:41:55.315Z,2.00
2023-02-27T12:42:57.015Z,1.90
2023-02-27T12:44:13.276Z,1.90
2023-02-27T12:45:33.680Z,1.90
2023-02-27T12:46:55.725Z,1.90
2023-02-27T12:48:03.604Z,1.90
2023-02-27T12:49:34.026Z,1.80
2023-02-27T12:50:58.635Z,1.80
2023-02-27T12:52:28.390Z,1.70
2023-02-27T12:53:42.125Z,1.70
2023-02-27T12:55:05.758Z,1.70
2023-02-27T12:56:13.408Z,1.60
2023-02-27T12:57:27.301Z,1.60
2023-02-27T12:58:38.269Z,1.60
2023-02-27T13:00:08.337Z,1.60
2023-02-27T13:01:44.472Z,1.50
2023-02-27T13:02:58.560Z,1.50
2023-02-27T13:04:09.139Z,1.60
2023-02-27T13:05:36.161Z,1.60
2023-02-27T13:07:25.827Z,1.60
2023-02-27T13:08:52.106Z,1.60
2023-02-27T13:10:21.712Z,1.60
2023-02-27T13:11:37.848Z,1.60
2023-02-27T13:12:46.688Z,1.70
2023-02-27T13:13:50.252Z,1.70
2023-02-27T13:15:11.720Z,1.80
2023-02-27T13:16:26.296Z,1.80
2023-02-27T13:17:49.572Z,1.80
2023-02-27T13:19:01.442Z,1.80
2023-02-27T13:20:21.156Z,1.90
2023-02-27T13:21:29.204Z,1.90
2023-02-27T13:22:43.790Z,1.90
2023-02-27T13:23:56.429Z,2.00
2023-02-27T13:25:01.464Z,2.00
2023-02-27T13:26:12.799Z,2.00
2023-02-27T13:27:26.622Z,2.00
2023-02-27T13:28:30.341Z,2.10
2023-02-27T13:29:37.162Z,2.20
2023-02-27T13:30:43.755Z,2.20
2023-02-27T13:32:04.990Z,2.20
2023-02-27T13:33:22.091Z,2.10
2023-02-27T13:34:36.249Z,2.10
2023-02-27T13:35:56.620Z,2.10
2023-02-27T13:37:05.717Z,2.10
2023-02-27T13:38:32.482Z,2.10
2023-02-27T13:39:40.283Z,2.20
2023-02-27T13:40:42.079Z,2.20
2023-02-27T13:41:43.879Z,2.20
2023-02-27T13:42:45.633Z,2.20
2023-02-27T13:43:52.561Z,2.10
2023-02-27T13:45:06.272Z,2.20
2023-02-27T13:46:33.397Z,2.20
2023-02-27T13:47:48.731Z,2.20
2023-02-27T13:49:26.956Z,2.20
2023-02-27T13:50:30.438Z,2.20
2023-02-27T13:51:53.629Z,2.30
2023-02-27T13:52:55.468Z,2.30
2023-02-27T13:54:19.929Z,2.30
2023-02-27T13:55:29.369Z,2.40
2023-02-27T13:56:31.155Z,2.40
2023-02-27T13:57:35.181Z,2.40
2023-02-27T13:58:37.215Z,2.40
2023-02-27T13:59:41.264Z,2.40
2023-02-27T14:00:43.176Z,2.30
2023-02-27T14:01:57.974Z,2.20
2023-02-27T14:03:17.363Z,2.20
2023-02-27T14:04:20.777Z,2.20
2023-02-27T14:05:35.070Z,2.20
2023-02-27T14:06:45.252Z,2.20
2023-02-27T14:08:14.872Z,2.20
2023-02-27T14:09:21.013Z,2.20
2023-02-27T14:10:29.587Z,2.20
2023-02-27T14:11:39.682Z,2.10
2023-02-27T14:12:46.427Z,2.10
2023-02-27T14:13:52.201Z,2.10
2023-02-27T14:14:55.454Z,2.10
2023-02-27T14:16:00.224Z,2.10
2023-02-27T14:17:03.610Z,2.10
2023-02-27T14:18:15.927Z,2.10
2023-02-27T14:19:28.691Z,2.10
2023-02-27T14:20:30.561Z,2.10
2023-02-27T14:21:57.048Z,2.10
2023-02-27T14:23:17.256Z,2.10
2023-02-27T14:24:41.382Z,2.20
2023-02-27T14:25:49.671Z,2.20
2023-02-27T14:26:53.446Z,2.20
2023-02-27T14:27:58.308Z,2.20
2023-02-27T14:29:01.145Z,2.20
2023-02-27T14:30:07.616Z,2.20
2023-02-27T14:31:32.327Z,2.20
2023-02-27T14:32:37.325Z,2.20
2023-02-27T14:33:56.286Z,2.30
2023-02-27T14:34:58.977Z,2.30
2023-02-27T14:36:05.052Z,2.30
2023-02-27T14:37:11.407Z,2.30
2023-02-27T14:38:19.300Z,2.30
2023-02-27T14:39:26.992Z,2.40
2023-02-27T14:40:35.043Z,2.40
2023-02-27T14:41:48.586Z,2.40
2023-02-27T14:43:19.166Z,2.40
2023-02-27T14:44:24.004Z,2.40
2023-02-27T14:45:25.945Z,2.40
2023-02-27T14:46:32.747Z,2.40
2023-02-27T14:47:37.952Z,2.40
2023-02-27T14:48:40.186Z,2.40
2023-02-27T14:49:42.919Z,2.40
2023-02-27T14:50:44.717Z,2.40
2023-02-27T14:51:47.179Z,2.40
2023-02-27T14:52:49.004Z,2.40
2023-02-27T14:54:21.610Z,2.40